sensor_id;sensor_type;location;lat;lon;timestamp;temperature;humidity
21734;DHT22;11029;47.820;10.534;2022-07-29T00:02:25;17.40;76.40
21734;DHT22;11029;47.820;10.534;2022-07-29T00:04:53;17.50;76.70
21734;DHT22;11029;47.820;10.534;2022-07-29T00:07:20;17.50;76.60
21734;DHT22;11029;47.820;10.534;2022-07-29T00:09:47;17.50;76.90
21734;DHT22;11029;47.820;10.534;2022-07-29T00:12:18;17.50;77.60
21734;DHT22;11029;47.820;10.534;2022-07-29T00:14:56;17.40;77.10
21734;DHT22;11029;47.820;10.534;2022-07-29T00:17:24;17.40;77.20
21734;DHT22;11029;47.820;10.534;2022-07-29T00:19:51;17.30;77.50
21734;DHT22;11029;47.820;10.534;2022-07-29T00:22:19;17.30;77.00
21734;DHT22;11029;47.820;10.534;2022-07-29T00:24:49;17.40;76.50
21734;DHT22;11029;47.820;10.534;2022-07-29T00:27:16;17.20;76.50
21734;DHT22;11029;47.820;10.534;2022-07-29T00:29:43;17.00;77.80
21734;DHT22;11029;47.820;10.534;2022-07-29T00:32:10;16.90;77.60
21734;DHT22;11029;47.820;10.534;2022-07-29T00:34:37;16.60;79.20
21734;DHT22;11029;47.820;10.534;2022-07-29T00:37:22;16.50;79.20
21734;DHT22;11029;47.820;10.534;2022-07-29T00:39:51;16.50;79.50
21734;DHT22;11029;47.820;10.534;2022-07-29T00:42:17;16.60;78.30
21734;DHT22;11029;47.820;10.534;2022-07-29T00:44:44;16.70;78.90
21734;DHT22;11029;47.820;10.534;2022-07-29T00:47:11;16.70;78.60
21734;DHT22;11029;47.820;10.534;2022-07-29T00:49:40;16.90;77.90
21734;DHT22;11029;47.820;10.534;2022-07-29T00:52:09;17.00;77.90
21734;DHT22;11029;47.820;10.534;2022-07-29T00:54:38;17.00;77.70
21734;DHT22;11029;47.820;10.534;2022-07-29T00:57:11;17.00;77.90
21734;DHT22;11029;47.820;10.534;2022-07-29T00:59:38;17.00;77.50
21734;DHT22;11029;47.820;10.534;2022-07-29T01:02:05;17.00;77.00
21734;DHT22;11029;47.820;10.534;2022-07-29T01:04:32;17.00;77.20
21734;DHT22;11029;47.820;10.534;2022-07-29T01:07:03;17.10;76.60
21734;DHT22;11029;47.820;10.534;2022-07-29T01:09:34;17.10;76.50
21734;DHT22;11029;47.820;10.534;2022-07-29T01:12:17;17.00;76.70
21734;DHT22;11029;47.820;10.534;2022-07-29T01:14:46;17.00;76.70
21734;DHT22;11029;47.820;10.534;2022-07-29T01:17:23;17.00;76.90
21734;DHT22;11029;47.820;10.534;2022-07-29T01:23:01;17.10;76.50
21734;DHT22;11029;47.820;10.534;2022-07-29T01:31:24;17.00;76.50
21734;DHT22;11029;47.820;10.534;2022-07-29T01:34:00;16.70;77.30
21734;DHT22;11029;47.820;10.534;2022-07-29T01:36:40;16.60;77.40
21734;DHT22;11029;47.820;10.534;2022-07-29T01:39:23;16.60;78.10
21734;DHT22;11029;47.820;10.534;2022-07-29T01:44:52;16.60;77.70
21734;DHT22;11029;47.820;10.534;2022-07-29T01:47:23;16.50;77.70
21734;DHT22;11029;47.820;10.534;2022-07-29T01:49:52;16.50;77.00
21734;DHT22;11029;47.820;10.534;2022-07-29T01:52:31;16.50;77.40
21734;DHT22;11029;47.820;10.534;2022-07-29T01:55:04;16.50;77.50
21734;DHT22;11029;47.820;10.534;2022-07-29T01:57:34;16.60;76.90
21734;DHT22;11029;47.820;10.534;2022-07-29T02:00:04;16.60;76.80
21734;DHT22;11029;47.820;10.534;2022-07-29T02:02:39;16.60;76.90
21734;DHT22;11029;47.820;10.534;2022-07-29T02:05:08;16.60;76.00
21734;DHT22;11029;47.820;10.534;2022-07-29T02:07:37;16.50;76.10
21734;DHT22;11029;47.820;10.534;2022-07-29T02:10:06;16.40;76.90
21734;DHT22;11029;47.820;10.534;2022-07-29T02:12:36;16.30;77.20
21734;DHT22;11029;47.820;10.534;2022-07-29T02:15:06;16.20;77.70
21734;DHT22;11029;47.820;10.534;2022-07-29T02:17:49;16.20;78.00
21734;DHT22;11029;47.820;10.534;2022-07-29T02:20:17;16.20;78.20
21734;DHT22;11029;47.820;10.534;2022-07-29T02:22:45;16.30;77.80
21734;DHT22;11029;47.820;10.534;2022-07-29T02:25:13;16.30;77.40
21734;DHT22;11029;47.820;10.534;2022-07-29T02:27:41;16.30;77.30
21734;DHT22;11029;47.820;10.534;2022-07-29T02:30:09;16.30;77.40
21734;DHT22;11029;47.820;10.534;2022-07-29T02:32:39;16.40;77.30
21734;DHT22;11029;47.820;10.534;2022-07-29T02:35:08;16.40;76.10
21734;DHT22;11029;47.820;10.534;2022-07-29T02:37:36;16.20;76.90
21734;DHT22;11029;47.820;10.534;2022-07-29T02:40:04;16.20;76.80
21734;DHT22;11029;47.820;10.534;2022-07-29T02:42:33;16.20;77.00
21734;DHT22;11029;47.820;10.534;2022-07-29T02:45:03;16.10;77.20
21734;DHT22;11029;47.820;10.534;2022-07-29T02:47:42;16.10;77.10
21734;DHT22;11029;47.820;10.534;2022-07-29T02:50:17;16.00;77.30
21734;DHT22;11029;47.820;10.534;2022-07-29T02:52:54;16.00;76.40
21734;DHT22;11029;47.820;10.534;2022-07-29T03:00:28;15.60;78.60
21734;DHT22;11029;47.820;10.534;2022-07-29T03:03:00;15.70;78.30
21734;DHT22;11029;47.820;10.534;2022-07-29T03:05:31;15.80;78.00
21734;DHT22;11029;47.820;10.534;2022-07-29T03:08:01;15.90;77.90
21734;DHT22;11029;47.820;10.534;2022-07-29T03:10:30;16.00;77.00
21734;DHT22;11029;47.820;10.534;2022-07-29T03:12:57;15.90;75.40
21734;DHT22;11029;47.820;10.534;2022-07-29T03:15:25;15.80;75.50
21734;DHT22;11029;47.820;10.534;2022-07-29T03:17:53;15.70;76.10
21734;DHT22;11029;47.820;10.534;2022-07-29T03:20:20;15.60;75.90
21734;DHT22;11029;47.820;10.534;2022-07-29T03:22:47;15.40;75.70
21734;DHT22;11029;47.820;10.534;2022-07-29T03:25:16;15.20;77.30
21734;DHT22;11029;47.820;10.534;2022-07-29T03:27:43;15.20;78.50
21734;DHT22;11029;47.820;10.534;2022-07-29T03:30:11;15.20;78.70
21734;DHT22;11029;47.820;10.534;2022-07-29T03:32:45;15.30;78.50
21734;DHT22;11029;47.820;10.534;2022-07-29T03:35:12;15.30;78.50
21734;DHT22;11029;47.820;10.534;2022-07-29T03:37:39;15.30;77.90
21734;DHT22;11029;47.820;10.534;2022-07-29T03:40:08;15.30;77.70
21734;DHT22;11029;47.820;10.534;2022-07-29T03:42:39;15.40;77.90
21734;DHT22;11029;47.820;10.534;2022-07-29T03:45:09;15.40;77.50
21734;DHT22;11029;47.820;10.534;2022-07-29T03:47:40;15.50;77.10
21734;DHT22;11029;47.820;10.534;2022-07-29T03:50:18;15.50;76.90
21734;DHT22;11029;47.820;10.534;2022-07-29T03:52:47;15.40;77.80
21734;DHT22;11029;47.820;10.534;2022-07-29T03:55:15;15.30;76.30
21734;DHT22;11029;47.820;10.534;2022-07-29T03:57:44;15.20;75.90
21734;DHT22;11029;47.820;10.534;2022-07-29T04:00:12;14.90;77.30
21734;DHT22;11029;47.820;10.534;2022-07-29T04:02:39;14.90;77.50
21734;DHT22;11029;47.820;10.534;2022-07-29T04:05:12;14.80;77.70
21734;DHT22;11029;47.820;10.534;2022-07-29T04:07:39;14.80;77.80
21734;DHT22;11029;47.820;10.534;2022-07-29T04:10:06;14.90;78.00
21734;DHT22;11029;47.820;10.534;2022-07-29T04:12:34;14.80;77.60
21734;DHT22;11029;47.820;10.534;2022-07-29T04:15:03;14.80;77.80
21734;DHT22;11029;47.820;10.534;2022-07-29T04:17:30;14.80;77.50
21734;DHT22;11029;47.820;10.534;2022-07-29T04:19:56;14.70;78.60
21734;DHT22;11029;47.820;10.534;2022-07-29T04:22:23;14.60;78.40
21734;DHT22;11029;47.820;10.534;2022-07-29T04:24:50;14.60;79.10
21734;DHT22;11029;47.820;10.534;2022-07-29T04:27:17;14.70;79.10
21734;DHT22;11029;47.820;10.534;2022-07-29T04:29:44;14.80;78.40
21734;DHT22;11029;47.820;10.534;2022-07-29T04:32:23;14.90;76.90
21734;DHT22;11029;47.820;10.534;2022-07-29T04:34:50;14.90;76.80
21734;DHT22;11029;47.820;10.534;2022-07-29T04:37:16;15.00;77.20
21734;DHT22;11029;47.820;10.534;2022-07-29T04:39:43;15.10;75.50
21734;DHT22;11029;47.820;10.534;2022-07-29T04:42:10;15.10;75.90
21734;DHT22;11029;47.820;10.534;2022-07-29T04:44:38;15.10;76.20
21734;DHT22;11029;47.820;10.534;2022-07-29T04:47:09;15.10;76.50
21734;DHT22;11029;47.820;10.534;2022-07-29T04:49:38;15.00;77.40
21734;DHT22;11029;47.820;10.534;2022-07-29T04:52:05;15.10;77.50
21734;DHT22;11029;47.820;10.534;2022-07-29T04:54:32;15.20;77.30
21734;DHT22;11029;47.820;10.534;2022-07-29T04:56:59;15.30;77.50
21734;DHT22;11029;47.820;10.534;2022-07-29T04:59:26;15.30;77.60
21734;DHT22;11029;47.820;10.534;2022-07-29T05:01:53;15.40;77.80
21734;DHT22;11029;47.820;10.534;2022-07-29T05:04:20;15.60;77.40
21734;DHT22;11029;47.820;10.534;2022-07-29T05:06:47;15.70;77.20
21734;DHT22;11029;47.820;10.534;2022-07-29T05:09:14;15.80;76.60
21734;DHT22;11029;47.820;10.534;2022-07-29T05:11:41;15.90;76.40
21734;DHT22;11029;47.820;10.534;2022-07-29T05:14:07;15.90;75.60
21734;DHT22;11029;47.820;10.534;2022-07-29T05:16:35;15.90;76.00
21734;DHT22;11029;47.820;10.534;2022-07-29T05:19:02;16.00;76.20
21734;DHT22;11029;47.820;10.534;2022-07-29T05:21:29;16.10;76.00
21734;DHT22;11029;47.820;10.534;2022-07-29T05:23:56;16.10;76.00
21734;DHT22;11029;47.820;10.534;2022-07-29T05:26:22;16.20;76.30
21734;DHT22;11029;47.820;10.534;2022-07-29T05:28:49;16.30;76.10
21734;DHT22;11029;47.820;10.534;2022-07-29T05:31:16;16.40;76.10
21734;DHT22;11029;47.820;10.534;2022-07-29T05:33:43;16.50;75.70
21734;DHT22;11029;47.820;10.534;2022-07-29T05:36:10;16.70;75.10
21734;DHT22;11029;47.820;10.534;2022-07-29T05:38:37;16.80;74.90
21734;DHT22;11029;47.820;10.534;2022-07-29T05:41:04;16.90;75.00
21734;DHT22;11029;47.820;10.534;2022-07-29T05:43:32;17.00;74.90
21734;DHT22;11029;47.820;10.534;2022-07-29T05:45:59;17.20;74.90
21734;DHT22;11029;47.820;10.534;2022-07-29T05:48:26;17.40;74.40
21734;DHT22;11029;47.820;10.534;2022-07-29T05:50:53;17.50;74.10
21734;DHT22;11029;47.820;10.534;2022-07-29T05:53:19;17.60;74.30
21734;DHT22;11029;47.820;10.534;2022-07-29T05:55:50;17.70;73.90
21734;DHT22;11029;47.820;10.534;2022-07-29T05:58:17;17.80;73.60
21734;DHT22;11029;47.820;10.534;2022-07-29T06:00:44;17.90;73.60
21734;DHT22;11029;47.820;10.534;2022-07-29T06:03:11;18.00;72.70
21734;DHT22;11029;47.820;10.534;2022-07-29T06:05:38;17.90;72.60
21734;DHT22;11029;47.820;10.534;2022-07-29T06:08:06;17.90;72.90
21734;DHT22;11029;47.820;10.534;2022-07-29T06:10:37;18.00;73.20
21734;DHT22;11029;47.820;10.534;2022-07-29T06:13:04;18.00;73.30
21734;DHT22;11029;47.820;10.534;2022-07-29T06:15:30;18.10;73.60
21734;DHT22;11029;47.820;10.534;2022-07-29T06:17:57;18.20;72.30
21734;DHT22;11029;47.820;10.534;2022-07-29T06:20:28;18.50;72.90
21734;DHT22;11029;47.820;10.534;2022-07-29T06:22:57;18.60;72.80
21734;DHT22;11029;47.820;10.534;2022-07-29T06:25:24;18.90;73.00
21734;DHT22;11029;47.820;10.534;2022-07-29T06:27:51;19.10;72.60
21734;DHT22;11029;47.820;10.534;2022-07-29T06:30:18;19.20;72.20
21734;DHT22;11029;47.820;10.534;2022-07-29T06:32:45;19.30;72.30
21734;DHT22;11029;47.820;10.534;2022-07-29T06:35:12;19.40;70.20
21734;DHT22;11029;47.820;10.534;2022-07-29T06:37:59;19.40;70.80
21734;DHT22;11029;47.820;10.534;2022-07-29T06:40:26;19.30;66.70
21734;DHT22;11029;47.820;10.534;2022-07-29T06:43:11;19.30;67.20
21734;DHT22;11029;47.820;10.534;2022-07-29T06:45:38;19.30;66.90
21734;DHT22;11029;47.820;10.534;2022-07-29T06:48:08;19.20;67.30
21734;DHT22;11029;47.820;10.534;2022-07-29T06:50:35;19.10;67.50
21734;DHT22;11029;47.820;10.534;2022-07-29T06:53:02;19.10;66.10
21734;DHT22;11029;47.820;10.534;2022-07-29T06:55:29;19.00;66.60
21734;DHT22;11029;47.820;10.534;2022-07-29T06:57:56;18.90;67.20
21734;DHT22;11029;47.820;10.534;2022-07-29T07:00:23;18.90;66.10
21734;DHT22;11029;47.820;10.534;2022-07-29T07:02:49;18.90;66.70
21734;DHT22;11029;47.820;10.534;2022-07-29T07:05:16;18.90;66.80
21734;DHT22;11029;47.820;10.534;2022-07-29T07:07:43;18.90;66.70
21734;DHT22;11029;47.820;10.534;2022-07-29T07:10:10;18.90;67.30
21734;DHT22;11029;47.820;10.534;2022-07-29T07:12:36;18.80;67.10
21734;DHT22;11029;47.820;10.534;2022-07-29T07:15:06;18.90;67.50
21734;DHT22;11029;47.820;10.534;2022-07-29T07:17:33;18.90;67.70
21734;DHT22;11029;47.820;10.534;2022-07-29T07:19:59;18.90;67.30
21734;DHT22;11029;47.820;10.534;2022-07-29T07:22:26;18.90;67.90
21734;DHT22;11029;47.820;10.534;2022-07-29T07:24:53;18.90;67.80
21734;DHT22;11029;47.820;10.534;2022-07-29T07:27:19;18.90;68.30
21734;DHT22;11029;47.820;10.534;2022-07-29T07:29:46;18.80;68.10
21734;DHT22;11029;47.820;10.534;2022-07-29T07:32:13;18.80;68.20
21734;DHT22;11029;47.820;10.534;2022-07-29T07:34:43;18.80;68.20
21734;DHT22;11029;47.820;10.534;2022-07-29T07:37:09;18.70;69.10
21734;DHT22;11029;47.820;10.534;2022-07-29T07:39:36;18.70;69.20
21734;DHT22;11029;47.820;10.534;2022-07-29T07:42:03;18.80;69.20
21734;DHT22;11029;47.820;10.534;2022-07-29T07:44:30;18.80;67.90
21734;DHT22;11029;47.820;10.534;2022-07-29T07:46:57;18.80;68.80
21734;DHT22;11029;47.820;10.534;2022-07-29T07:49:29;18.90;69.20
21734;DHT22;11029;47.820;10.534;2022-07-29T07:51:56;18.80;68.60
21734;DHT22;11029;47.820;10.534;2022-07-29T07:54:23;18.80;68.90
21734;DHT22;11029;47.820;10.534;2022-07-29T07:56:50;18.80;67.80
21734;DHT22;11029;47.820;10.534;2022-07-29T07:59:19;18.80;68.70
21734;DHT22;11029;47.820;10.534;2022-07-29T08:01:45;18.90;69.00
21734;DHT22;11029;47.820;10.534;2022-07-29T08:04:22;18.90;67.50
21734;DHT22;11029;47.820;10.534;2022-07-29T08:06:54;18.90;68.10
21734;DHT22;11029;47.820;10.534;2022-07-29T08:09:23;19.00;67.90
21734;DHT22;11029;47.820;10.534;2022-07-29T08:11:58;19.10;66.90
21734;DHT22;11029;47.820;10.534;2022-07-29T08:14:25;19.10;67.30
21734;DHT22;11029;47.820;10.534;2022-07-29T08:16:52;19.20;66.90
21734;DHT22;11029;47.820;10.534;2022-07-29T08:19:19;19.20;66.50
21734;DHT22;11029;47.820;10.534;2022-07-29T08:21:46;19.30;65.60
21734;DHT22;11029;47.820;10.534;2022-07-29T08:24:13;19.40;65.60
21734;DHT22;11029;47.820;10.534;2022-07-29T08:26:58;19.60;66.20
21734;DHT22;11029;47.820;10.534;2022-07-29T08:29:25;19.70;69.00
21734;DHT22;11029;47.820;10.534;2022-07-29T08:31:52;19.90;69.90
21734;DHT22;11029;47.820;10.534;2022-07-29T08:34:19;20.00;69.80
21734;DHT22;11029;47.820;10.534;2022-07-29T08:36:53;19.90;69.30
21734;DHT22;11029;47.820;10.534;2022-07-29T08:39:20;19.80;66.30
21734;DHT22;11029;47.820;10.534;2022-07-29T08:41:47;19.90;66.10
21734;DHT22;11029;47.820;10.534;2022-07-29T08:44:23;20.00;66.20
21734;DHT22;11029;47.820;10.534;2022-07-29T08:46:56;20.20;66.50
21734;DHT22;11029;47.820;10.534;2022-07-29T08:49:23;20.40;66.30
21734;DHT22;11029;47.820;10.534;2022-07-29T08:51:50;20.50;65.00
21734;DHT22;11029;47.820;10.534;2022-07-29T08:54:18;20.70;63.70
21734;DHT22;11029;47.820;10.534;2022-07-29T08:56:48;20.80;64.50
21734;DHT22;11029;47.820;10.534;2022-07-29T08:59:19;20.90;63.20
21734;DHT22;11029;47.820;10.534;2022-07-29T09:01:48;21.00;63.20
21734;DHT22;11029;47.820;10.534;2022-07-29T09:04:18;21.20;63.90
21734;DHT22;11029;47.820;10.534;2022-07-29T09:06:48;21.30;63.20
21734;DHT22;11029;47.820;10.534;2022-07-29T09:09:16;21.60;61.90
21734;DHT22;11029;47.820;10.534;2022-07-29T09:11:43;21.60;61.70
21734;DHT22;11029;47.820;10.534;2022-07-29T09:14:12;21.50;58.40
21734;DHT22;11029;47.820;10.534;2022-07-29T09:16:54;21.50;60.20
21734;DHT22;11029;47.820;10.534;2022-07-29T09:19:27;21.40;61.30
21734;DHT22;11029;47.820;10.534;2022-07-29T09:21:56;21.40;59.60
21734;DHT22;11029;47.820;10.534;2022-07-29T09:24:45;21.40;58.10
21734;DHT22;11029;47.820;10.534;2022-07-29T09:27:19;21.40;58.70
21734;DHT22;11029;47.820;10.534;2022-07-29T09:29:56;21.40;60.40
21734;DHT22;11029;47.820;10.534;2022-07-29T09:32:23;21.40;58.20
21734;DHT22;11029;47.820;10.534;2022-07-29T09:34:50;21.40;57.90
21734;DHT22;11029;47.820;10.534;2022-07-29T09:37:29;21.40;59.90
21734;DHT22;11029;47.820;10.534;2022-07-29T09:39:56;21.30;58.80
21734;DHT22;11029;47.820;10.534;2022-07-29T09:42:29;21.40;58.10
21734;DHT22;11029;47.820;10.534;2022-07-29T09:44:58;21.40;57.60
21734;DHT22;11029;47.820;10.534;2022-07-29T09:47:41;21.30;59.30
21734;DHT22;11029;47.820;10.534;2022-07-29T09:50:08;21.40;58.80
21734;DHT22;11029;47.820;10.534;2022-07-29T09:55:14;21.20;56.70
21734;DHT22;11029;47.820;10.534;2022-07-29T09:57:44;21.20;59.10
21734;DHT22;11029;47.820;10.534;2022-07-29T10:00:15;21.20;60.10
21734;DHT22;11029;47.820;10.534;2022-07-29T10:02:44;21.30;59.60
21734;DHT22;11029;47.820;10.534;2022-07-29T10:05:24;21.40;60.80
21734;DHT22;11029;47.820;10.534;2022-07-29T10:07:53;21.40;59.90
21734;DHT22;11029;47.820;10.534;2022-07-29T10:10:25;21.50;59.60
21734;DHT22;11029;47.820;10.534;2022-07-29T10:12:55;21.60;59.20
21734;DHT22;11029;47.820;10.534;2022-07-29T10:15:25;21.70;59.00
21734;DHT22;11029;47.820;10.534;2022-07-29T10:17:54;21.80;58.60
21734;DHT22;11029;47.820;10.534;2022-07-29T10:20:22;21.60;57.80
21734;DHT22;11029;47.820;10.534;2022-07-29T10:22:50;21.60;59.50
21734;DHT22;11029;47.820;10.534;2022-07-29T10:25:21;21.50;59.00
21734;DHT22;11029;47.820;10.534;2022-07-29T10:27:48;21.50;59.30
21734;DHT22;11029;47.820;10.534;2022-07-29T10:30:16;21.60;58.60
21734;DHT22;11029;47.820;10.534;2022-07-29T10:44:16;21.50;55.40
21734;DHT22;11029;47.820;10.534;2022-07-29T10:46:49;21.70;59.00
21734;DHT22;11029;47.820;10.534;2022-07-29T10:54:17;21.60;53.90
21734;DHT22;11029;47.820;10.534;2022-07-29T10:56:45;21.50;56.40
21734;DHT22;11029;47.820;10.534;2022-07-29T10:59:22;21.50;53.60
21734;DHT22;11029;47.820;10.534;2022-07-29T11:02:02;21.50;53.50
21734;DHT22;11029;47.820;10.534;2022-07-29T11:07:16;21.00;54.80
21734;DHT22;11029;47.820;10.534;2022-07-29T11:09:43;21.00;54.90
21734;DHT22;11029;47.820;10.534;2022-07-29T11:15:06;20.60;56.10
21734;DHT22;11029;47.820;10.534;2022-07-29T11:20:46;20.50;57.60
21734;DHT22;11029;47.820;10.534;2022-07-29T11:23:32;20.50;58.40
21734;DHT22;11029;47.820;10.534;2022-07-29T11:26:20;20.30;59.40
21734;DHT22;11029;47.820;10.534;2022-07-29T11:29:16;20.20;58.70
21734;DHT22;11029;47.820;10.534;2022-07-29T11:31:47;20.20;59.20
21734;DHT22;11029;47.820;10.534;2022-07-29T11:34:25;20.20;58.50
21734;DHT22;11029;47.820;10.534;2022-07-29T11:39:37;20.40;58.70
21734;DHT22;11029;47.820;10.534;2022-07-29T11:47:56;20.20;60.70
21734;DHT22;11029;47.820;10.534;2022-07-29T11:50:44;20.10;60.00
21734;DHT22;11029;47.820;10.534;2022-07-29T11:53:14;20.00;61.00
21734;DHT22;11029;47.820;10.534;2022-07-29T11:55:42;20.20;61.80
21734;DHT22;11029;47.820;10.534;2022-07-29T11:58:29;20.30;61.30
21734;DHT22;11029;47.820;10.534;2022-07-29T12:00:56;20.30;61.10
21734;DHT22;11029;47.820;10.534;2022-07-29T12:03:26;20.30;61.20
21734;DHT22;11029;47.820;10.534;2022-07-29T12:06:13;20.50;60.40
21734;DHT22;11029;47.820;10.534;2022-07-29T12:08:43;20.70;59.80
21734;DHT22;11029;47.820;10.534;2022-07-29T12:11:20;20.70;59.10
21734;DHT22;11029;47.820;10.534;2022-07-29T12:13:52;20.70;58.70
21734;DHT22;11029;47.820;10.534;2022-07-29T12:16:20;20.80;59.00
21734;DHT22;11029;47.820;10.534;2022-07-29T12:19:00;20.90;58.50
21734;DHT22;11029;47.820;10.534;2022-07-29T12:22:02;20.90;58.60
21734;DHT22;11029;47.820;10.534;2022-07-29T12:24:24;21.00;59.00
21734;DHT22;11029;47.820;10.534;2022-07-29T12:26:57;21.20;59.10
21734;DHT22;11029;47.820;10.534;2022-07-29T12:29:25;21.30;58.70
21734;DHT22;11029;47.820;10.534;2022-07-29T12:32:02;21.40;57.50
21734;DHT22;11029;47.820;10.534;2022-07-29T12:34:30;21.50;58.30
21734;DHT22;11029;47.820;10.534;2022-07-29T12:36:58;21.60;58.50
21734;DHT22;11029;47.820;10.534;2022-07-29T12:39:25;21.80;56.50
21734;DHT22;11029;47.820;10.534;2022-07-29T12:41:54;21.70;56.90
21734;DHT22;11029;47.820;10.534;2022-07-29T12:44:51;21.70;56.80
21734;DHT22;11029;47.820;10.534;2022-07-29T12:47:18;21.80;56.50
21734;DHT22;11029;47.820;10.534;2022-07-29T12:49:46;21.90;55.90
21734;DHT22;11029;47.820;10.534;2022-07-29T12:52:39;22.10;55.40
21734;DHT22;11029;47.820;10.534;2022-07-29T12:55:07;22.20;54.30
21734;DHT22;11029;47.820;10.534;2022-07-29T12:57:48;22.40;54.50
21734;DHT22;11029;47.820;10.534;2022-07-29T13:00:16;22.60;53.80
21734;DHT22;11029;47.820;10.534;2022-07-29T13:02:43;22.70;53.50
21734;DHT22;11029;47.820;10.534;2022-07-29T13:05:10;22.90;53.20
21734;DHT22;11029;47.820;10.534;2022-07-29T13:07:39;23.00;52.60
21734;DHT22;11029;47.820;10.534;2022-07-29T13:10:23;23.00;52.20
21734;DHT22;11029;47.820;10.534;2022-07-29T13:13:10;23.00;52.70
21734;DHT22;11029;47.820;10.534;2022-07-29T13:15:39;23.00;51.60
21734;DHT22;11029;47.820;10.534;2022-07-29T13:18:29;23.10;51.90
21734;DHT22;11029;47.820;10.534;2022-07-29T13:20:58;23.30;50.80
21734;DHT22;11029;47.820;10.534;2022-07-29T13:23:36;23.20;50.90
21734;DHT22;11029;47.820;10.534;2022-07-29T13:26:08;23.00;52.00
21734;DHT22;11029;47.820;10.534;2022-07-29T13:28:35;23.00;52.50
21734;DHT22;11029;47.820;10.534;2022-07-29T13:31:02;22.80;54.30
21734;DHT22;11029;47.820;10.534;2022-07-29T13:33:29;22.90;54.20
21734;DHT22;11029;47.820;10.534;2022-07-29T13:35:56;23.00;53.70
21734;DHT22;11029;47.820;10.534;2022-07-29T13:38:23;23.00;53.90
21734;DHT22;11029;47.820;10.534;2022-07-29T13:40:56;22.80;54.70
21734;DHT22;11029;47.820;10.534;2022-07-29T13:43:23;22.40;55.80
21734;DHT22;11029;47.820;10.534;2022-07-29T13:45:50;22.20;55.50
21734;DHT22;11029;47.820;10.534;2022-07-29T13:48:17;22.10;56.00
21734;DHT22;11029;47.820;10.534;2022-07-29T13:50:44;22.00;56.30
21734;DHT22;11029;47.820;10.534;2022-07-29T13:53:12;21.90;57.20
21734;DHT22;11029;47.820;10.534;2022-07-29T13:55:43;21.90;57.90
21734;DHT22;11029;47.820;10.534;2022-07-29T13:58:10;21.80;57.40
21734;DHT22;11029;47.820;10.534;2022-07-29T14:00:37;21.80;55.90
21734;DHT22;11029;47.820;10.534;2022-07-29T14:03:04;21.80;56.30
21734;DHT22;11029;47.820;10.534;2022-07-29T14:05:31;21.80;56.40
21734;DHT22;11029;47.820;10.534;2022-07-29T14:07:57;21.70;55.40
21734;DHT22;11029;47.820;10.534;2022-07-29T14:10:24;21.60;56.30
21734;DHT22;11029;47.820;10.534;2022-07-29T14:12:52;21.70;55.40
21734;DHT22;11029;47.820;10.534;2022-07-29T14:15:19;21.70;55.60
21734;DHT22;11029;47.820;10.534;2022-07-29T14:17:46;21.70;56.90
21734;DHT22;11029;47.820;10.534;2022-07-29T14:20:13;21.70;56.20
21734;DHT22;11029;47.820;10.534;2022-07-29T14:22:42;21.80;57.20
21734;DHT22;11029;47.820;10.534;2022-07-29T14:25:10;21.80;57.10
21734;DHT22;11029;47.820;10.534;2022-07-29T14:27:40;21.70;58.40
21734;DHT22;11029;47.820;10.534;2022-07-29T14:30:08;21.60;58.10
21734;DHT22;11029;47.820;10.534;2022-07-29T14:32:35;21.50;57.40
21734;DHT22;11029;47.820;10.534;2022-07-29T14:35:02;21.40;58.20
21734;DHT22;11029;47.820;10.534;2022-07-29T14:37:29;21.40;57.70
21734;DHT22;11029;47.820;10.534;2022-07-29T14:40:07;21.40;57.20
21734;DHT22;11029;47.820;10.534;2022-07-29T14:42:34;21.40;56.60
21734;DHT22;11029;47.820;10.534;2022-07-29T14:45:03;21.40;55.40
21734;DHT22;11029;47.820;10.534;2022-07-29T14:47:32;21.40;56.50
21734;DHT22;11029;47.820;10.534;2022-07-29T14:49:59;21.30;57.40
21734;DHT22;11029;47.820;10.534;2022-07-29T14:52:26;21.30;58.00
21734;DHT22;11029;47.820;10.534;2022-07-29T14:54:52;21.20;58.80
21734;DHT22;11029;47.820;10.534;2022-07-29T14:57:19;21.20;59.60
21734;DHT22;11029;47.820;10.534;2022-07-29T14:59:46;21.10;56.10
21734;DHT22;11029;47.820;10.534;2022-07-29T15:02:13;21.00;56.30
21734;DHT22;11029;47.820;10.534;2022-07-29T15:04:40;20.90;57.20
21734;DHT22;11029;47.820;10.534;2022-07-29T15:07:06;20.70;57.00
21734;DHT22;11029;47.820;10.534;2022-07-29T15:09:33;20.50;58.70
21734;DHT22;11029;47.820;10.534;2022-07-29T15:12:06;20.30;56.80
21734;DHT22;11029;47.820;10.534;2022-07-29T15:14:33;20.20;58.80
21734;DHT22;11029;47.820;10.534;2022-07-29T15:17:00;19.90;61.00
21734;DHT22;11029;47.820;10.534;2022-07-29T15:19:30;19.60;63.10
21734;DHT22;11029;47.820;10.534;2022-07-29T15:21:57;19.60;63.60
21734;DHT22;11029;47.820;10.534;2022-07-29T15:24:25;19.60;64.10
21734;DHT22;11029;47.820;10.534;2022-07-29T15:26:52;19.80;63.90
21734;DHT22;11029;47.820;10.534;2022-07-29T15:29:19;19.90;64.80
21734;DHT22;11029;47.820;10.534;2022-07-29T15:31:45;19.90;63.70
21734;DHT22;11029;47.820;10.534;2022-07-29T15:34:12;20.00;64.60
21734;DHT22;11029;47.820;10.534;2022-07-29T15:36:39;20.10;65.20
21734;DHT22;11029;47.820;10.534;2022-07-29T15:39:22;20.10;64.40
21734;DHT22;11029;47.820;10.534;2022-07-29T15:41:49;20.10;64.80
21734;DHT22;11029;47.820;10.534;2022-07-29T15:44:16;20.10;64.80
21734;DHT22;11029;47.820;10.534;2022-07-29T15:46:43;20.20;65.30
21734;DHT22;11029;47.820;10.534;2022-07-29T15:49:33;20.20;64.60
21734;DHT22;11029;47.820;10.534;2022-07-29T15:52:18;20.20;64.20
21734;DHT22;11029;47.820;10.534;2022-07-29T15:54:51;20.30;64.50
21734;DHT22;11029;47.820;10.534;2022-07-29T15:57:18;20.30;64.40
21734;DHT22;11029;47.820;10.534;2022-07-29T15:59:44;20.20;64.80
21734;DHT22;11029;47.820;10.534;2022-07-29T16:02:11;20.10;65.80
21734;DHT22;11029;47.820;10.534;2022-07-29T16:04:38;20.10;64.60
21734;DHT22;11029;47.820;10.534;2022-07-29T16:07:05;20.00;65.30
21734;DHT22;11029;47.820;10.534;2022-07-29T16:09:32;20.00;65.40
21734;DHT22;11029;47.820;10.534;2022-07-29T16:11:59;20.00;64.30
21734;DHT22;11029;47.820;10.534;2022-07-29T16:14:26;20.00;62.80
21734;DHT22;11029;47.820;10.534;2022-07-29T16:16:54;19.90;61.70
21734;DHT22;11029;47.820;10.534;2022-07-29T16:19:22;19.90;61.00
21734;DHT22;11029;47.820;10.534;2022-07-29T16:21:48;19.90;60.60
21734;DHT22;11029;47.820;10.534;2022-07-29T16:24:15;19.80;61.20
21734;DHT22;11029;47.820;10.534;2022-07-29T16:26:42;19.80;61.20